sensor_id;sensor_type;location;lat;lon;timestamp;pressure;altitude;pressure_sealevel;temperature;humidity
20930;BME280;21895;47.072;15.132;2023-05-11T00:00:40;96548.00;;;13.57;82.05
20930;BME280;21895;47.072;15.132;2023-05-11T00:03:10;96545.00;;;13.65;81.63
20930;BME280;21895;47.072;15.132;2023-05-11T00:05:39;96547.00;;;13.53;81.68
20930;BME280;21895;47.072;15.132;2023-05-11T00:08:05;96540.00;;;13.48;82.11
20930;BME280;21895;47.072;15.132;2023-05-11T00:10:32;96540.00;;;13.53;82.05
20930;BME280;21895;47.072;15.132;2023-05-11T00:12:58;96541.00;;;13.66;80.81
20930;BME280;21895;47.072;15.132;2023-05-11T00:15:25;96546.00;;;13.64;81.06
20930;BME280;21895;47.072;15.132;2023-05-11T00:17:51;96533.00;;;13.59;81.47
20930;BME280;21895;47.072;15.132;2023-05-11T00:20:18;96526.00;;;13.53;81.80
20930;BME280;21895;47.072;15.132;2023-05-11T00:22:46;96534.00;;;13.48;81.64
20930;BME280;21895;47.072;15.132;2023-05-11T00:25:13;96533.00;;;13.44;81.70
20930;BME280;21895;47.072;15.132;2023-05-11T00:27:39;96531.00;;;13.53;81.98
20930;BME280;21895;47.072;15.132;2023-05-11T00:30:12;96534.00;;;13.59;81.60
20930;BME280;21895;47.072;15.132;2023-05-11T00:32:40;96527.00;;;13.54;81.61
20930;BME280;21895;47.072;15.132;2023-05-11T00:35:08;96526.00;;;13.70;81.10
20930;BME280;21895;47.072;15.132;2023-05-11T00:37:37;96525.00;;;13.66;81.27
20930;BME280;21895;47.072;15.132;2023-05-11T00:40:05;96521.00;;;13.73;80.42
20930;BME280;21895;47.072;15.132;2023-05-11T00:42:32;96521.00;;;13.75;80.24
20930;BME280;21895;47.072;15.132;2023-05-11T00:44:58;96521.00;;;13.61;80.42
20930;BME280;21895;47.072;15.132;2023-05-11T00:47:25;96517.00;;;13.60;80.39
20930;BME280;21895;47.072;15.132;2023-05-11T00:49:53;96520.00;;;13.62;80.57
20930;BME280;21895;47.072;15.132;2023-05-11T00:52:21;96519.00;;;13.58;80.91
20930;BME280;21895;47.072;15.132;2023-05-11T00:54:48;96520.00;;;13.59;80.97
20930;BME280;21895;47.072;15.132;2023-05-11T00:57:15;96519.00;;;13.58;80.83
20930;BME280;21895;47.072;15.132;2023-05-11T00:59:42;96503.00;;;13.67;80.44
20930;BME280;21895;47.072;15.132;2023-05-11T01:02:08;96510.00;;;13.44;80.93
20930;BME280;21895;47.072;15.132;2023-05-11T01:04:35;96510.00;;;13.45;80.75
20930;BME280;21895;47.072;15.132;2023-05-11T01:09:43;96510.00;;;13.34;81.28
20930;BME280;21895;47.072;15.132;2023-05-11T01:12:39;96509.00;;;13.23;81.92
20930;BME280;21895;47.072;15.132;2023-05-11T01:15:32;96510.00;;;13.40;81.22
20930;BME280;21895;47.072;15.132;2023-05-11T01:18:27;96508.00;;;13.33;81.47
20930;BME280;21895;47.072;15.132;2023-05-11T01:21:03;96504.00;;;13.24;81.98
20930;BME280;21895;47.072;15.132;2023-05-11T01:28:46;96503.00;;;13.45;81.47
20930;BME280;21895;47.072;15.132;2023-05-11T01:31:17;96495.00;;;13.35;81.93
20930;BME280;21895;47.072;15.132;2023-05-11T01:33:57;96493.00;;;13.42;81.21
20930;BME280;21895;47.072;15.132;2023-05-11T01:36:33;96500.00;;;13.30;81.64
20930;BME280;21895;47.072;15.132;2023-05-11T01:39:07;96500.00;;;13.26;82.16
20930;BME280;21895;47.072;15.132;2023-05-11T01:41:38;96502.00;;;13.25;82.46
20930;BME280;21895;47.072;15.132;2023-05-11T01:44:09;96506.00;;;13.28;82.41
20930;BME280;21895;47.072;15.132;2023-05-11T01:46:37;96498.00;;;13.35;82.08
20930;BME280;21895;47.072;15.132;2023-05-11T01:49:06;96501.00;;;13.30;82.29
20930;BME280;21895;47.072;15.132;2023-05-11T01:51:36;96500.00;;;13.28;82.63
20930;BME280;21895;47.072;15.132;2023-05-11T01:54:08;96503.00;;;13.42;82.61
20930;BME280;21895;47.072;15.132;2023-05-11T01:56:39;96503.00;;;13.50;82.53
20930;BME280;21895;47.072;15.132;2023-05-11T01:59:07;96504.00;;;13.57;82.04
20930;BME280;21895;47.072;15.132;2023-05-11T02:01:34;96503.00;;;13.57;82.37
20930;BME280;21895;47.072;15.132;2023-05-11T02:04:03;96504.00;;;13.49;83.05
20930;BME280;21895;47.072;15.132;2023-05-11T02:06:33;96502.00;;;13.48;83.21
20930;BME280;21895;47.072;15.132;2023-05-11T02:09:01;96504.00;;;13.53;83.37
20930;BME280;21895;47.072;15.132;2023-05-11T02:11:30;96500.00;;;13.50;82.78
20930;BME280;21895;47.072;15.132;2023-05-11T02:13:58;96502.00;;;13.33;81.89
20930;BME280;21895;47.072;15.132;2023-05-11T02:16:27;96498.00;;;13.33;81.88
20930;BME280;21895;47.072;15.132;2023-05-11T02:18:55;96506.00;;;13.30;82.08
20930;BME280;21895;47.072;15.132;2023-05-11T02:21:25;96512.00;;;13.32;82.01
20930;BME280;21895;47.072;15.132;2023-05-11T02:23:53;96504.00;;;13.23;83.28
20930;BME280;21895;47.072;15.132;2023-05-11T02:26:20;96511.00;;;13.27;83.57
20930;BME280;21895;47.072;15.132;2023-05-11T02:28:47;96509.00;;;13.29;83.24
20930;BME280;21895;47.072;15.132;2023-05-11T02:31:18;96513.00;;;13.29;83.01
20930;BME280;21895;47.072;15.132;2023-05-11T02:33:51;96510.00;;;13.36;83.30
20930;BME280;21895;47.072;15.132;2023-05-11T02:36:22;96508.00;;;13.40;82.80
20930;BME280;21895;47.072;15.132;2023-05-11T02:39:00;96507.00;;;13.36;82.57
20930;BME280;21895;47.072;15.132;2023-05-11T02:41:30;96498.00;;;13.39;82.60
20930;BME280;21895;47.072;15.132;2023-05-11T02:44:02;96496.00;;;13.51;81.68
20930;BME280;21895;47.072;15.132;2023-05-11T02:46:34;96498.00;;;13.35;81.87
20930;BME280;21895;47.072;15.132;2023-05-11T02:49:06;96498.00;;;13.45;80.83
20930;BME280;21895;47.072;15.132;2023-05-11T02:51:42;96493.00;;;13.32;81.45
20930;BME280;21895;47.072;15.132;2023-05-11T02:54:13;96491.00;;;13.31;81.47
20930;BME280;21895;47.072;15.132;2023-05-11T02:56:41;96490.00;;;13.47;80.85
20930;BME280;21895;47.072;15.132;2023-05-11T02:59:07;96495.00;;;13.42;80.78
20930;BME280;21895;47.072;15.132;2023-05-11T03:01:34;96498.00;;;13.42;80.52
20930;BME280;21895;47.072;15.132;2023-05-11T03:04:04;96492.00;;;13.28;81.07
20930;BME280;21895;47.072;15.132;2023-05-11T03:06:31;96487.00;;;13.20;80.89
20930;BME280;21895;47.072;15.132;2023-05-11T03:09:00;96487.00;;;13.20;80.96
20930;BME280;21895;47.072;15.132;2023-05-11T03:11:27;96479.00;;;13.12;81.64
20930;BME280;21895;47.072;15.132;2023-05-11T03:13:54;96481.00;;;13.09;82.02
20930;BME280;21895;47.072;15.132;2023-05-11T03:16:25;96477.00;;;13.05;82.24
20930;BME280;21895;47.072;15.132;2023-05-11T03:18:54;96484.00;;;13.03;82.46
20930;BME280;21895;47.072;15.132;2023-05-11T03:21:22;96472.00;;;13.12;82.32
20930;BME280;21895;47.072;15.132;2023-05-11T03:23:50;96482.00;;;13.17;82.11
20930;BME280;21895;47.072;15.132;2023-05-11T03:26:18;96477.00;;;13.19;81.59
20930;BME280;21895;47.072;15.132;2023-05-11T03:28:47;96480.00;;;13.14;81.99
20930;BME280;21895;47.072;15.132;2023-05-11T03:31:14;96475.00;;;13.07;82.24
20930;BME280;21895;47.072;15.132;2023-05-11T03:33:40;96477.00;;;13.05;82.42
20930;BME280;21895;47.072;15.132;2023-05-11T03:36:09;96478.00;;;13.13;81.97
20930;BME280;21895;47.072;15.132;2023-05-11T03:38:38;96480.00;;;13.27;81.75
20930;BME280;21895;47.072;15.132;2023-05-11T03:41:04;96482.00;;;13.23;81.45
20930;BME280;21895;47.072;15.132;2023-05-11T03:43:33;96479.00;;;13.23;81.91
20930;BME280;21895;47.072;15.132;2023-05-11T03:46:02;96475.00;;;13.28;82.33
20930;BME280;21895;47.072;15.132;2023-05-11T03:48:30;96475.00;;;13.26;82.72
20930;BME280;21895;47.072;15.132;2023-05-11T03:50:58;96477.00;;;13.37;82.56
20930;BME280;21895;47.072;15.132;2023-05-11T03:53:25;96479.00;;;13.36;82.08
20930;BME280;21895;47.072;15.132;2023-05-11T03:55:52;96479.00;;;13.30;82.40
20930;BME280;21895;47.072;15.132;2023-05-11T03:58:19;96476.00;;;13.27;82.74
20930;BME280;21895;47.072;15.132;2023-05-11T04:00:45;96478.00;;;13.28;82.79
20930;BME280;21895;47.072;15.132;2023-05-11T04:03:12;96485.00;;;13.30;82.59
20930;BME280;21895;47.072;15.132;2023-05-11T04:05:40;96475.00;;;13.26;82.32
20930;BME280;21895;47.072;15.132;2023-05-11T04:08:06;96475.00;;;13.26;82.24
20930;BME280;21895;47.072;15.132;2023-05-11T04:10:36;96469.00;;;13.35;81.91
20930;BME280;21895;47.072;15.132;2023-05-11T04:13:03;96465.00;;;13.48;80.88
20930;BME280;21895;47.072;15.132;2023-05-11T04:15:30;96468.00;;;13.50;80.51
20930;BME280;21895;47.072;15.132;2023-05-11T04:17:56;96473.00;;;13.45;80.95
20930;BME280;21895;47.072;15.132;2023-05-11T04:20:23;96475.00;;;13.41;81.26
20930;BME280;21895;47.072;15.132;2023-05-11T04:22:49;96471.00;;;13.33;81.39
20930;BME280;21895;47.072;15.132;2023-05-11T04:25:16;96473.00;;;13.36;81.35
20930;BME280;21895;47.072;15.132;2023-05-11T04:27:42;96473.00;;;13.60;80.19
20930;BME280;21895;47.072;15.132;2023-05-11T04:30:10;96471.00;;;13.52;79.97
20930;BME280;21895;47.072;15.132;2023-05-11T04:32:36;96473.00;;;13.50;80.09
20930;BME280;21895;47.072;15.132;2023-05-11T04:35:03;96480.00;;;13.43;80.75
20930;BME280;21895;47.072;15.132;2023-05-11T04:37:30;96487.00;;;13.44;80.96
20930;BME280;21895;47.072;15.132;2023-05-11T04:39:57;96484.00;;;13.42;81.63
20930;BME280;21895;47.072;15.132;2023-05-11T04:42:23;96493.00;;;13.39;81.69
20930;BME280;21895;47.072;15.132;2023-05-11T04:44:52;96493.00;;;13.47;81.40
20930;BME280;21895;47.072;15.132;2023-05-11T04:47:19;96492.00;;;13.45;80.54
20930;BME280;21895;47.072;15.132;2023-05-11T04:49:46;96489.00;;;13.50;80.03
20930;BME280;21895;47.072;15.132;2023-05-11T04:52:13;96491.00;;;13.49;80.38
20930;BME280;21895;47.072;15.132;2023-05-11T04:54:39;96494.00;;;13.51;80.86
20930;BME280;21895;47.072;15.132;2023-05-11T04:57:06;96490.00;;;13.67;79.83
20930;BME280;21895;47.072;15.132;2023-05-11T04:59:32;96487.00;;;13.64;80.20
20930;BME280;21895;47.072;15.132;2023-05-11T05:01:59;96487.00;;;13.57;80.63
20930;BME280;21895;47.072;15.132;2023-05-11T05:04:25;96485.00;;;13.54;80.63
20930;BME280;21895;47.072;15.132;2023-05-11T05:06:52;96484.00;;;13.54;80.65
20930;BME280;21895;47.072;15.132;2023-05-11T05:09:19;96493.00;;;13.52;80.50
20930;BME280;21895;47.072;15.132;2023-05-11T05:11:45;96493.00;;;13.46;80.92
20930;BME280;21895;47.072;15.132;2023-05-11T05:14:12;96489.00;;;13.53;81.04
20930;BME280;21895;47.072;15.132;2023-05-11T05:16:39;96482.00;;;13.59;80.64
20930;BME280;21895;47.072;15.132;2023-05-11T05:19:05;96491.00;;;13.61;80.51
20930;BME280;21895;47.072;15.132;2023-05-11T05:21:32;96492.00;;;13.67;80.59
20930;BME280;21895;47.072;15.132;2023-05-11T05:24:01;96489.00;;;13.67;80.49
20930;BME280;21895;47.072;15.132;2023-05-11T05:26:29;96485.00;;;13.76;80.05
20930;BME280;21895;47.072;15.132;2023-05-11T05:28:55;96493.00;;;13.95;79.39
20930;BME280;21895;47.072;15.132;2023-05-11T05:31:23;96481.00;;;14.09;78.13
20930;BME280;21895;47.072;15.132;2023-05-11T05:33:50;96484.00;;;13.87;79.32
20930;BME280;21895;47.072;15.132;2023-05-11T05:36:16;96490.00;;;13.91;79.45
20930;BME280;21895;47.072;15.132;2023-05-11T05:38:43;96480.00;;;13.90;79.88
20930;BME280;21895;47.072;15.132;2023-05-11T05:41:10;96477.00;;;13.84;80.39
20930;BME280;21895;47.072;15.132;2023-05-11T05:43:36;96474.00;;;13.81;80.97
20930;BME280;21895;47.072;15.132;2023-05-11T05:46:03;96478.00;;;13.82;80.63
20930;BME280;21895;47.072;15.132;2023-05-11T05:48:29;96478.00;;;13.80;81.20
20930;BME280;21895;47.072;15.132;2023-05-11T05:50:56;96486.00;;;13.92;81.16
20930;BME280;21895;47.072;15.132;2023-05-11T05:53:22;96491.00;;;13.95;80.38
20930;BME280;21895;47.072;15.132;2023-05-11T05:55:49;96492.00;;;13.96;79.56
20930;BME280;21895;47.072;15.132;2023-05-11T05:58:15;96497.00;;;13.97;79.81
20930;BME280;21895;47.072;15.132;2023-05-11T06:00:42;96494.00;;;13.94;80.48
20930;BME280;21895;47.072;15.132;2023-05-11T06:03:09;96493.00;;;13.93;79.85
20930;BME280;21895;47.072;15.132;2023-05-11T06:05:35;96495.00;;;14.02;78.99
20930;BME280;21895;47.072;15.132;2023-05-11T06:08:02;96485.00;;;14.07;79.36
20930;BME280;21895;47.072;15.132;2023-05-11T06:10:34;96483.00;;;14.12;80.05
20930;BME280;21895;47.072;15.132;2023-05-11T06:13:01;96496.00;;;14.19;79.32
20930;BME280;21895;47.072;15.132;2023-05-11T06:15:27;96498.00;;;14.10;79.61
20930;BME280;21895;47.072;15.132;2023-05-11T06:17:54;96501.00;;;14.08;79.92
20930;BME280;21895;47.072;15.132;2023-05-11T06:20:20;96491.00;;;13.98;80.29
20930;BME280;21895;47.072;15.132;2023-05-11T06:22:48;96503.00;;;13.96;80.27
20930;BME280;21895;47.072;15.132;2023-05-11T06:25:15;96496.00;;;14.05;79.87
20930;BME280;21895;47.072;15.132;2023-05-11T06:27:41;96498.00;;;14.06;80.30
20930;BME280;21895;47.072;15.132;2023-05-11T06:30:09;96495.00;;;14.01;79.91
20930;BME280;21895;47.072;15.132;2023-05-11T06:32:35;96494.00;;;13.90;80.24
20930;BME280;21895;47.072;15.132;2023-05-11T06:35:02;96493.00;;;13.89;80.35
20930;BME280;21895;47.072;15.132;2023-05-11T06:37:29;96497.00;;;13.95;80.59
20930;BME280;21895;47.072;15.132;2023-05-11T06:39:57;96504.00;;;14.12;79.48
20930;BME280;21895;47.072;15.132;2023-05-11T06:42:24;96495.00;;;14.06;79.52
20930;BME280;21895;47.072;15.132;2023-05-11T06:44:51;96490.00;;;14.01;79.66
20930;BME280;21895;47.072;15.132;2023-05-11T06:47:19;96495.00;;;14.01;79.70
20930;BME280;21895;47.072;15.132;2023-05-11T06:49:46;96491.00;;;13.93;80.08
20930;BME280;21895;47.072;15.132;2023-05-11T06:52:13;96488.00;;;13.83;80.89
20930;BME280;21895;47.072;15.132;2023-05-11T06:54:39;96495.00;;;13.84;80.74
20930;BME280;21895;47.072;15.132;2023-05-11T06:57:06;96489.00;;;13.89;81.00
20930;BME280;21895;47.072;15.132;2023-05-11T06:59:32;96488.00;;;13.96;80.08
20930;BME280;21895;47.072;15.132;2023-05-11T07:01:59;96490.00;;;13.95;80.19
20930;BME280;21895;47.072;15.132;2023-05-11T07:04:26;96495.00;;;13.91;80.21
20930;BME280;21895;47.072;15.132;2023-05-11T07:06:54;96493.00;;;13.93;80.44
20930;BME280;21895;47.072;15.132;2023-05-11T07:09:21;96483.00;;;14.02;80.13
20930;BME280;21895;47.072;15.132;2023-05-11T07:11:48;96487.00;;;14.01;79.97
20930;BME280;21895;47.072;15.132;2023-05-11T07:14:16;96482.00;;;14.03;79.46
20930;BME280;21895;47.072;15.132;2023-05-11T07:16:42;96483.00;;;14.00;80.00
20930;BME280;21895;47.072;15.132;2023-05-11T07:19:09;96493.00;;;13.96;80.21
20930;BME280;21895;47.072;15.132;2023-05-11T07:21:36;96481.00;;;13.99;80.20
20930;BME280;21895;47.072;15.132;2023-05-11T07:24:02;96490.00;;;14.01;80.14
20930;BME280;21895;47.072;15.132;2023-05-11T07:26:29;96483.00;;;13.97;80.03
20930;BME280;21895;47.072;15.132;2023-05-11T07:28:55;96482.00;;;14.06;80.07
20930;BME280;21895;47.072;15.132;2023-05-11T07:31:22;96481.00;;;14.06;79.64
20930;BME280;21895;47.072;15.132;2023-05-11T07:33:48;96489.00;;;14.09;79.88
20930;BME280;21895;47.072;15.132;2023-05-11T07:36:15;96478.00;;;14.18;79.58
20930;BME280;21895;47.072;15.132;2023-05-11T07:38:42;96479.00;;;14.20;79.45
20930;BME280;21895;47.072;15.132;2023-05-11T07:41:08;96483.00;;;14.29;79.09
20930;BME280;21895;47.072;15.132;2023-05-11T07:43:38;96491.00;;;14.41;78.84
20930;BME280;21895;47.072;15.132;2023-05-11T07:46:05;96494.00;;;14.46;78.73
20930;BME280;21895;47.072;15.132;2023-05-11T07:48:32;96493.00;;;14.50;78.59
20930;BME280;21895;47.072;15.132;2023-05-11T07:50:59;96496.00;;;14.49;78.65
20930;BME280;21895;47.072;15.132;2023-05-11T07:53:26;96497.00;;;14.58;78.48
20930;BME280;21895;47.072;15.132;2023-05-11T07:55:53;96500.00;;;14.55;78.43
20930;BME280;21895;47.072;15.132;2023-05-11T07:58:19;96501.00;;;14.54;78.67
20930;BME280;21895;47.072;15.132;2023-05-11T08:00:46;96500.00;;;14.62;78.62
20930;BME280;21895;47.072;15.132;2023-05-11T08:03:12;96499.00;;;14.58;78.32
20930;BME280;21895;47.072;15.132;2023-05-11T08:05:40;96506.00;;;14.61;77.93
20930;BME280;21895;47.072;15.132;2023-05-11T08:08:06;96503.00;;;14.64;78.34
20930;BME280;21895;47.072;15.132;2023-05-11T08:10:35;96506.00;;;14.76;77.38
20930;BME280;21895;47.072;15.132;2023-05-11T08:13:01;96501.00;;;14.93;77.79
20930;BME280;21895;47.072;15.132;2023-05-11T08:15:28;96509.00;;;14.88;77.22
20930;BME280;21895;47.072;15.132;2023-05-11T08:17:55;96500.00;;;14.99;76.74
20930;BME280;21895;47.072;15.132;2023-05-11T08:20:22;96504.00;;;14.93;76.99
20930;BME280;21895;47.072;15.132;2023-05-11T08:22:48;96496.00;;;14.97;75.60
20930;BME280;21895;47.072;15.132;2023-05-11T08:25:15;96506.00;;;14.84;76.21
20930;BME280;21895;47.072;15.132;2023-05-11T08:27:41;96499.00;;;14.80;76.79
20930;BME280;21895;47.072;15.132;2023-05-11T08:30:09;96498.00;;;14.81;74.21
20930;BME280;21895;47.072;15.132;2023-05-11T08:32:37;96491.00;;;14.68;73.76
20930;BME280;21895;47.072;15.132;2023-05-11T08:35:09;96484.00;;;14.58;74.66
20930;BME280;21895;47.072;15.132;2023-05-11T08:37:36;96494.00;;;14.56;73.76
20930;BME280;21895;47.072;15.132;2023-05-11T08:40:03;96489.00;;;14.58;72.96
20930;BME280;21895;47.072;15.132;2023-05-11T08:42:32;96482.00;;;14.67;72.92
20930;BME280;21895;47.072;15.132;2023-05-11T08:45:03;96486.00;;;14.63;73.54
20930;BME280;21895;47.072;15.132;2023-05-11T08:47:33;96491.00;;;14.48;74.90
20930;BME280;21895;47.072;15.132;2023-05-11T08:50:00;96497.00;;;14.46;75.54
20930;BME280;21895;47.072;15.132;2023-05-11T08:52:27;96491.00;;;14.53;75.12
20930;BME280;21895;47.072;15.132;2023-05-11T08:54:54;96486.00;;;14.61;75.00
20930;BME280;21895;47.072;15.132;2023-05-11T08:57:22;96487.00;;;14.67;75.31
20930;BME280;21895;47.072;15.132;2023-05-11T08:59:52;96484.00;;;14.62;75.40
20930;BME280;21895;47.072;15.132;2023-05-11T09:02:19;96493.00;;;14.67;75.49
20930;BME280;21895;47.072;15.132;2023-05-11T09:04:46;96492.00;;;14.82;75.62
20930;BME280;21895;47.072;15.132;2023-05-11T09:07:17;96497.00;;;14.68;76.00
20930;BME280;21895;47.072;15.132;2023-05-11T09:09:45;96494.00;;;14.76;75.78
20930;BME280;21895;47.072;15.132;2023-05-11T09:12:13;96500.00;;;14.86;75.53
20930;BME280;21895;47.072;15.132;2023-05-11T09:14:40;96498.00;;;14.92;75.35
20930;BME280;21895;47.072;15.132;2023-05-11T09:17:07;96491.00;;;14.76;75.27
20930;BME280;21895;47.072;15.132;2023-05-11T09:19:34;96494.00;;;14.75;75.39
20930;BME280;21895;47.072;15.132;2023-05-11T09:22:01;96492.00;;;14.72;75.17
20930;BME280;21895;47.072;15.132;2023-05-11T09:24:28;96481.00;;;14.77;75.58
20930;BME280;21895;47.072;15.132;2023-05-11T09:27:08;96488.00;;;14.66;75.70
20930;BME280;21895;47.072;15.132;2023-05-11T09:29:35;96484.00;;;14.58;75.56
20930;BME280;21895;47.072;15.132;2023-05-11T09:32:02;96485.00;;;14.50;75.34
20930;BME280;21895;47.072;15.132;2023-05-11T09:34:28;96485.00;;;14.46;75.19
20930;BME280;21895;47.072;15.132;2023-05-11T09:36:56;96481.00;;;14.26;76.61
20930;BME280;21895;47.072;15.132;2023-05-11T09:39:34;96480.00;;;14.25;77.04
20930;BME280;21895;47.072;15.132;2023-05-11T09:42:23;96485.00;;;14.32;77.21
20930;BME280;21895;47.072;15.132;2023-05-11T09:44:49;96475.00;;;14.39;77.08
20930;BME280;21895;47.072;15.132;2023-05-11T09:47:19;96482.00;;;14.37;76.94
20930;BME280;21895;47.072;15.132;2023-05-11T09:49:47;96479.00;;;14.33;77.20
20930;BME280;21895;47.072;15.132;2023-05-11T09:52:17;96477.00;;;14.37;76.98
20930;BME280;21895;47.072;15.132;2023-05-11T09:54:49;96474.00;;;14.40;76.61
20930;BME280;21895;47.072;15.132;2023-05-11T09:57:30;96475.00;;;14.34;76.66
20930;BME280;21895;47.072;15.132;2023-05-11T09:59:59;96475.00;;;14.29;75.89
20930;BME280;21895;47.072;15.132;2023-05-11T10:02:30;96474.00;;;14.20;76.27
20930;BME280;21895;47.072;15.132;2023-05-11T10:04:59;96480.00;;;14.22;76.69
20930;BME280;21895;47.072;15.132;2023-05-11T10:07:34;96479.00;;;14.03;76.82
20930;BME280;21895;47.072;15.132;2023-05-11T10:10:10;96476.00;;;13.93;77.40
20930;BME280;21895;47.072;15.132;2023-05-11T10:12:36;96475.00;;;13.97;78.15
20930;BME280;21895;47.072;15.132;2023-05-11T10:15:07;96476.00;;;13.99;77.75
20930;BME280;21895;47.072;15.132;2023-05-11T10:17:35;96464.00;;;13.93;77.74
20930;BME280;21895;47.072;15.132;2023-05-11T10:20:04;96469.00;;;13.96;78.20
20930;BME280;21895;47.072;15.132;2023-05-11T10:22:31;96474.00;;;13.95;78.35
20930;BME280;21895;47.072;15.132;2023-05-11T10:24:59;96468.00;;;13.96;78.07
20930;BME280;21895;47.072;15.132;2023-05-11T10:27:26;96465.00;;;13.94;78.13
20930;BME280;21895;47.072;15.132;2023-05-11T10:29:53;96467.00;;;14.00;77.88
20930;BME280;21895;47.072;15.132;2023-05-11T10:32:20;96468.00;;;13.93;77.39
20930;BME280;21895;47.072;15.132;2023-05-11T10:34:48;96463.00;;;13.91;77.76
20930;BME280;21895;47.072;15.132;2023-05-11T10:37:17;96469.00;;;14.00;77.32
20930;BME280;21895;47.072;15.132;2023-05-11T10:39:46;96467.00;;;13.88;76.55
20930;BME280;21895;47.072;15.132;2023-05-11T10:52:05;96469.00;;;13.92;76.86
20930;BME280;21895;47.072;15.132;2023-05-11T10:57:56;96470.00;;;13.92;75.62
20930;BME280;21895;47.072;15.132;2023-05-11T11:02:20;96474.00;;;13.93;76.38
20930;BME280;21895;47.072;15.132;2023-05-11T11:04:50;96476.00;;;13.89;75.48
20930;BME280;21895;47.072;15.132;2023-05-11T11:07:17;96473.00;;;13.94;75.89
20930;BME280;21895;47.072;15.132;2023-05-11T11:09:57;96478.00;;;13.90;75.92
20930;BME280;21895;47.072;15.132;2023-05-11T11:12:31;96475.00;;;14.02;76.22
20930;BME280;21895;47.072;15.132;2023-05-11T11:15:03;96474.00;;;14.08;75.79
20930;BME280;21895;47.072;15.132;2023-05-11T11:17:33;96474.00;;;14.18;75.19
20930;BME280;21895;47.072;15.132;2023-05-11T11:20:05;96473.00;;;14.21;74.50
20930;BME280;21895;47.072;15.132;2023-05-11T11:22:51;96473.00;;;14.23;75.11
20930;BME280;21895;47.072;15.132;2023-05-11T11:25:52;96475.00;;;14.24;75.21
20930;BME280;21895;47.072;15.132;2023-05-11T11:28:21;96478.00;;;14.17;74.68
20930;BME280;21895;47.072;15.132;2023-05-11T11:30:47;96478.00;;;14.07;75.67
20930;BME280;21895;47.072;15.132;2023-05-11T11:33:52;96476.00;;;13.99;75.32
20930;BME280;21895;47.072;15.132;2023-05-11T11:37:00;96481.00;;;13.96;75.64
20930;BME280;21895;47.072;15.132;2023-05-11T11:39:48;96481.00;;;13.88;75.74
20930;BME280;21895;47.072;15.132;2023-05-11T11:42:35;96483.00;;;13.87;75.87
20930;BME280;21895;47.072;15.132;2023-05-11T11:45:31;96484.00;;;13.84;75.56
20930;BME280;21895;47.072;15.132;2023-05-11T11:48:22;96481.00;;;13.75;76.15
20930;BME280;21895;47.072;15.132;2023-05-11T11:51:04;96478.00;;;13.70;75.91
20930;BME280;21895;47.072;15.132;2023-05-11T11:54:04;96487.00;;;13.94;75.03
20930;BME280;21895;47.072;15.132;2023-05-11T11:56:40;96476.00;;;13.85;74.97
20930;BME280;21895;47.072;15.132;2023-05-11T11:59:07;96473.00;;;13.70;75.76
20930;BME280;21895;47.072;15.132;2023-05-11T12:01:37;96478.00;;;13.73;76.93
20930;BME280;21895;47.072;15.132;2023-05-11T12:04:55;96480.00;;;13.61;77.37
20930;BME280;21895;47.072;15.132;2023-05-11T12:07:24;96488.00;;;13.65;77.84
20930;BME280;21895;47.072;15.132;2023-05-11T12:09:51;96481.00;;;13.61;77.45
20930;BME280;21895;47.072;15.132;2023-05-11T12:12:19;96488.00;;;13.73;77.33
20930;BME280;21895;47.072;15.132;2023-05-11T12:14:46;96482.00;;;13.60;76.94
20930;BME280;21895;47.072;15.132;2023-05-11T12:17:27;96481.00;;;13.55;77.58
20930;BME280;21895;47.072;15.132;2023-05-11T12:20:10;96482.00;;;13.79;76.88
20930;BME280;21895;47.072;15.132;2023-05-11T12:22:37;96477.00;;;13.69;76.73
20930;BME280;21895;47.072;15.132;2023-05-11T12:25:08;96480.00;;;13.49;77.70
20930;BME280;21895;47.072;15.132;2023-05-11T12:27:52;96476.00;;;13.48;78.54
20930;BME280;21895;47.072;15.132;2023-05-11T12:30:31;96474.00;;;13.35;78.42
20930;BME280;21895;47.072;15.132;2023-05-11T12:33:00;96465.00;;;13.28;79.16
20930;BME280;21895;47.072;15.132;2023-05-11T12:35:33;96476.00;;;13.42;78.64
20930;BME280;21895;47.072;15.132;2023-05-11T12:38:01;96469.00;;;13.46;78.95
20930;BME280;21895;47.072;15.132;2023-05-11T12:40:29;96465.00;;;13.53;78.35
20930;BME280;21895;47.072;15.132;2023-05-11T12:42:58;96469.00;;;13.44;79.11
20930;BME280;21895;47.072;15.132;2023-05-11T12:45:26;96464.00;;;13.70;79.02
20930;BME280;21895;47.072;15.132;2023-05-11T12:47:55;96465.00;;;13.69;78.65
20930;BME280;21895;47.072;15.132;2023-05-11T12:50:22;96466.00;;;13.81;77.98
20930;BME280;21895;47.072;15.132;2023-05-11T12:52:49;96468.00;;;13.99;76.56
20930;BME280;21895;47.072;15.132;2023-05-11T12:55:28;96465.00;;;13.80;77.71
20930;BME280;21895;47.072;15.132;2023-05-11T12:58:09;96460.00;;;13.93;77.51
20930;BME280;21895;47.072;15.132;2023-05-11T13:00:51;96461.00;;;13.91;77.55
20930;BME280;21895;47.072;15.132;2023-05-11T13:03:28;96459.00;;;13.97;76.72
20930;BME280;21895;47.072;15.132;2023-05-11T13:06:10;96460.00;;;13.85;76.91
20930;BME280;21895;47.072;15.132;2023-05-11T13:08:39;96455.00;;;14.01;77.19
20930;BME280;21895;47.072;15.132;2023-05-11T13:11:23;96463.00;;;13.78;77.68
20930;BME280;21895;47.072;15.132;2023-05-11T13:13:55;96464.00;;;13.75;78.68
20930;BME280;21895;47.072;15.132;2023-05-11T13:16:26;96461.00;;;13.69;79.29
20930;BME280;21895;47.072;15.132;2023-05-11T13:19:05;96456.00;;;13.71;79.34
20930;BME280;21895;47.072;15.132;2023-05-11T13:21:33;96461.00;;;13.81;78.64
20930;BME280;21895;47.072;15.132;2023-05-11T13:24:00;96461.00;;;13.84;78.60
20930;BME280;21895;47.072;15.132;2023-05-11T13:26:29;96461.00;;;13.86;78.63